sensor_id;sensor_type;location;lat;lon;timestamp;temperature;humidity
27759;DHT22;15148;48.972;12.794;2023-07-29T00:01:46;17.50;99.90
27759;DHT22;15148;48.972;12.794;2023-07-29T00:06:48;17.50;99.90
27759;DHT22;15148;48.972;12.794;2023-07-29T00:11:50;17.50;99.90
27759;DHT22;15148;48.972;12.794;2023-07-29T00:16:52;17.40;99.90
27759;DHT22;15148;48.972;12.794;2023-07-29T00:21:54;17.40;99.90
27759;DHT22;15148;48.972;12.794;2023-07-29T00:26:55;17.40;99.90
27759;DHT22;15148;48.972;12.794;2023-07-29T00:31:57;17.30;99.90
27759;DHT22;15148;48.972;12.794;2023-07-29T00:36:59;17.40;99.90
27759;DHT22;15148;48.972;12.794;2023-07-29T00:42:01;17.40;99.90
27759;DHT22;15148;48.972;12.794;2023-07-29T00:47:04;17.40;99.90
27759;DHT22;15148;48.972;12.794;2023-07-29T00:52:07;17.40;99.90
27759;DHT22;15148;48.972;12.794;2023-07-29T00:57:10;17.40;99.90
27759;DHT22;15148;48.972;12.794;2023-07-29T01:02:13;17.40;99.90
27759;DHT22;15148;48.972;12.794;2023-07-29T01:12:51;17.40;99.90
27759;DHT22;15148;48.972;12.794;2023-07-29T01:18:11;17.40;99.90
27759;DHT22;15148;48.972;12.794;2023-07-29T01:23:23;17.40;99.90
27759;DHT22;15148;48.972;12.794;2023-07-29T01:28:27;17.40;99.90
27759;DHT22;15148;48.972;12.794;2023-07-29T01:33:35;17.40;99.90
27759;DHT22;15148;48.972;12.794;2023-07-29T01:38:41;17.40;99.90
27759;DHT22;15148;48.972;12.794;2023-07-29T01:43:45;17.40;99.90
27759;DHT22;15148;48.972;12.794;2023-07-29T01:48:48;17.40;99.90
27759;DHT22;15148;48.972;12.794;2023-07-29T01:53:50;17.40;99.90
27759;DHT22;15148;48.972;12.794;2023-07-29T01:58:52;17.40;99.90
27759;DHT22;15148;48.972;12.794;2023-07-29T02:03:54;17.40;99.90
27759;DHT22;15148;48.972;12.794;2023-07-29T02:08:58;17.40;99.90
27759;DHT22;15148;48.972;12.794;2023-07-29T02:14:00;17.40;99.90
27759;DHT22;15148;48.972;12.794;2023-07-29T02:19:03;17.30;99.90
27759;DHT22;15148;48.972;12.794;2023-07-29T02:24:05;17.40;99.90
27759;DHT22;15148;48.972;12.794;2023-07-29T02:29:07;17.40;99.90
27759;DHT22;15148;48.972;12.794;2023-07-29T02:34:08;17.40;99.90
27759;DHT22;15148;48.972;12.794;2023-07-29T02:39:10;17.40;99.90
27759;DHT22;15148;48.972;12.794;2023-07-29T02:44:12;17.40;99.90
27759;DHT22;15148;48.972;12.794;2023-07-29T02:49:14;17.40;99.90
27759;DHT22;15148;48.972;12.794;2023-07-29T02:54:16;17.40;99.90
27759;DHT22;15148;48.972;12.794;2023-07-29T02:59:18;17.50;99.90
27759;DHT22;15148;48.972;12.794;2023-07-29T03:04:20;17.40;99.90
27759;DHT22;15148;48.972;12.794;2023-07-29T03:09:22;17.40;99.90
27759;DHT22;15148;48.972;12.794;2023-07-29T03:14:24;17.40;99.90
27759;DHT22;15148;48.972;12.794;2023-07-29T03:19:26;17.40;99.90
27759;DHT22;15148;48.972;12.794;2023-07-29T03:24:28;17.30;99.90
27759;DHT22;15148;48.972;12.794;2023-07-29T03:29:30;17.40;99.90
27759;DHT22;15148;48.972;12.794;2023-07-29T03:34:32;17.40;99.90
27759;DHT22;15148;48.972;12.794;2023-07-29T03:39:35;17.40;99.90
27759;DHT22;15148;48.972;12.794;2023-07-29T03:44:36;17.40;99.90
27759;DHT22;15148;48.972;12.794;2023-07-29T03:49:41;17.40;99.90
27759;DHT22;15148;48.972;12.794;2023-07-29T03:54:43;17.40;99.90
27759;DHT22;15148;48.972;12.794;2023-07-29T03:59:45;17.40;99.90
27759;DHT22;15148;48.972;12.794;2023-07-29T04:04:47;17.40;99.90
27759;DHT22;15148;48.972;12.794;2023-07-29T04:09:50;17.40;99.90
27759;DHT22;15148;48.972;12.794;2023-07-29T04:14:52;17.40;99.90
27759;DHT22;15148;48.972;12.794;2023-07-29T04:19:54;17.40;99.90
27759;DHT22;15148;48.972;12.794;2023-07-29T04:24:59;17.50;99.90
27759;DHT22;15148;48.972;12.794;2023-07-29T04:30:01;17.50;99.90
27759;DHT22;15148;48.972;12.794;2023-07-29T04:35:04;17.50;99.90
27759;DHT22;15148;48.972;12.794;2023-07-29T04:40:06;17.30;99.90
27759;DHT22;15148;48.972;12.794;2023-07-29T04:45:09;17.30;99.90
27759;DHT22;15148;48.972;12.794;2023-07-29T04:50:11;17.30;99.90
27759;DHT22;15148;48.972;12.794;2023-07-29T04:55:13;17.20;99.90
27759;DHT22;15148;48.972;12.794;2023-07-29T05:00:15;17.10;99.90
27759;DHT22;15148;48.972;12.794;2023-07-29T05:05:17;17.10;99.90
27759;DHT22;15148;48.972;12.794;2023-07-29T05:10:20;17.10;99.90
27759;DHT22;15148;48.972;12.794;2023-07-29T05:15:22;17.20;99.90
27759;DHT22;15148;48.972;12.794;2023-07-29T05:20:24;17.40;99.90
27759;DHT22;15148;48.972;12.794;2023-07-29T05:25:26;17.50;99.90
27759;DHT22;15148;48.972;12.794;2023-07-29T05:30:28;17.70;99.90
27759;DHT22;15148;48.972;12.794;2023-07-29T05:35:33;17.70;99.90
27759;DHT22;15148;48.972;12.794;2023-07-29T05:40:35;17.90;99.90
27759;DHT22;15148;48.972;12.794;2023-07-29T05:45:37;17.90;99.90
27759;DHT22;15148;48.972;12.794;2023-07-29T05:50:39;17.90;99.90
27759;DHT22;15148;48.972;12.794;2023-07-29T05:55:41;18.00;99.90
27759;DHT22;15148;48.972;12.794;2023-07-29T06:00:43;18.00;99.90
27759;DHT22;15148;48.972;12.794;2023-07-29T06:05:45;18.10;99.90
27759;DHT22;15148;48.972;12.794;2023-07-29T06:10:47;18.30;99.90
27759;DHT22;15148;48.972;12.794;2023-07-29T06:15:49;18.10;99.90
27759;DHT22;15148;48.972;12.794;2023-07-29T06:20:51;18.30;99.90
27759;DHT22;15148;48.972;12.794;2023-07-29T06:25:53;18.50;99.90
27759;DHT22;15148;48.972;12.794;2023-07-29T06:30:55;19.00;99.90
27759;DHT22;15148;48.972;12.794;2023-07-29T06:35:57;19.50;99.90
27759;DHT22;15148;48.972;12.794;2023-07-29T06:40:59;19.80;99.90
27759;DHT22;15148;48.972;12.794;2023-07-29T06:46:01;19.80;99.90
27759;DHT22;15148;48.972;12.794;2023-07-29T06:51:03;19.80;99.90
27759;DHT22;15148;48.972;12.794;2023-07-29T06:56:05;19.60;99.90
27759;DHT22;15148;48.972;12.794;2023-07-29T07:01:08;19.70;99.90
27759;DHT22;15148;48.972;12.794;2023-07-29T07:06:10;20.10;99.90
27759;DHT22;15148;48.972;12.794;2023-07-29T07:11:12;20.10;99.90
27759;DHT22;15148;48.972;12.794;2023-07-29T07:16:13;20.10;99.90
27759;DHT22;15148;48.972;12.794;2023-07-29T07:21:15;20.10;99.90
27759;DHT22;15148;48.972;12.794;2023-07-29T07:26:17;20.40;99.90
27759;DHT22;15148;48.972;12.794;2023-07-29T07:31:19;20.60;99.90
27759;DHT22;15148;48.972;12.794;2023-07-29T07:36:21;20.80;99.90
27759;DHT22;15148;48.972;12.794;2023-07-29T07:41:23;20.80;99.90
27759;DHT22;15148;48.972;12.794;2023-07-29T07:46:25;20.60;99.90
27759;DHT22;15148;48.972;12.794;2023-07-29T07:51:27;20.50;99.90
27759;DHT22;15148;48.972;12.794;2023-07-29T07:56:29;20.50;99.90
27759;DHT22;15148;48.972;12.794;2023-07-29T08:01:35;20.40;99.90
27759;DHT22;15148;48.972;12.794;2023-07-29T08:06:38;20.60;99.90
27759;DHT22;15148;48.972;12.794;2023-07-29T08:11:40;20.50;99.90
27759;DHT22;15148;48.972;12.794;2023-07-29T08:16:42;20.20;99.90
27759;DHT22;15148;48.972;12.794;2023-07-29T08:21:43;20.20;99.90
27759;DHT22;15148;48.972;12.794;2023-07-29T08:26:45;20.30;99.90
27759;DHT22;15148;48.972;12.794;2023-07-29T08:31:47;20.20;99.90
27759;DHT22;15148;48.972;12.794;2023-07-29T08:36:49;20.30;99.90
27759;DHT22;15148;48.972;12.794;2023-07-29T08:41:57;20.40;99.90
27759;DHT22;15148;48.972;12.794;2023-07-29T08:47:03;20.40;99.90
27759;DHT22;15148;48.972;12.794;2023-07-29T08:52:05;20.40;99.90
27759;DHT22;15148;48.972;12.794;2023-07-29T08:57:08;20.30;99.90
27759;DHT22;15148;48.972;12.794;2023-07-29T09:02:10;20.30;99.90
27759;DHT22;15148;48.972;12.794;2023-07-29T09:07:12;20.20;99.90
27759;DHT22;15148;48.972;12.794;2023-07-29T09:12:14;19.90;99.90
27759;DHT22;15148;48.972;12.794;2023-07-29T09:17:16;19.70;99.90
27759;DHT22;15148;48.972;12.794;2023-07-29T09:22:20;19.30;99.90
27759;DHT22;15148;48.972;12.794;2023-07-29T09:27:26;19.20;99.90
27759;DHT22;15148;48.972;12.794;2023-07-29T09:32:28;19.30;99.90
27759;DHT22;15148;48.972;12.794;2023-07-29T09:37:32;19.40;99.90
27759;DHT22;15148;48.972;12.794;2023-07-29T09:42:33;19.30;99.90
27759;DHT22;15148;48.972;12.794;2023-07-29T09:47:35;19.30;99.90
27759;DHT22;15148;48.972;12.794;2023-07-29T09:52:37;19.30;99.90
27759;DHT22;15148;48.972;12.794;2023-07-29T09:57:40;19.30;99.90
27759;DHT22;15148;48.972;12.794;2023-07-29T10:02:43;19.40;99.90
27759;DHT22;15148;48.972;12.794;2023-07-29T10:07:46;19.40;99.90
27759;DHT22;15148;48.972;12.794;2023-07-29T10:12:49;19.50;99.90
27759;DHT22;15148;48.972;12.794;2023-07-29T10:17:53;19.50;99.90
27759;DHT22;15148;48.972;12.794;2023-07-29T10:22:56;19.60;99.90
27759;DHT22;15148;48.972;12.794;2023-07-29T10:28:07;19.70;99.90
27759;DHT22;15148;48.972;12.794;2023-07-29T10:33:10;20.00;99.90
27759;DHT22;15148;48.972;12.794;2023-07-29T10:38:12;20.00;99.90
27759;DHT22;15148;48.972;12.794;2023-07-29T10:43:19;20.00;99.90
27759;DHT22;15148;48.972;12.794;2023-07-29T10:53:37;20.40;99.90
27759;DHT22;15148;48.972;12.794;2023-07-29T10:58:42;20.20;99.90
27759;DHT22;15148;48.972;12.794;2023-07-29T11:04:01;19.60;99.90
27759;DHT22;15148;48.972;12.794;2023-07-29T11:14:52;19.30;99.90
27759;DHT22;15148;48.972;12.794;2023-07-29T11:19:56;19.20;99.90
27759;DHT22;15148;48.972;12.794;2023-07-29T11:25:00;19.40;99.90
27759;DHT22;15148;48.972;12.794;2023-07-29T11:30:04;19.40;99.90
27759;DHT22;15148;48.972;12.794;2023-07-29T11:35:10;19.60;99.90
27759;DHT22;15148;48.972;12.794;2023-07-29T11:40:20;19.80;99.90
27759;DHT22;15148;48.972;12.794;2023-07-29T11:45:23;19.80;99.90
27759;DHT22;15148;48.972;12.794;2023-07-29T11:50:39;19.80;99.90
27759;DHT22;15148;48.972;12.794;2023-07-29T11:55:41;20.10;99.90
27759;DHT22;15148;48.972;12.794;2023-07-29T12:00:43;20.20;99.90
27759;DHT22;15148;48.972;12.794;2023-07-29T12:05:46;20.40;99.90
27759;DHT22;15148;48.972;12.794;2023-07-29T12:10:48;20.60;99.90
27759;DHT22;15148;48.972;12.794;2023-07-29T12:15:50;20.90;99.90
27759;DHT22;15148;48.972;12.794;2023-07-29T12:20:55;21.10;99.90
27759;DHT22;15148;48.972;12.794;2023-07-29T12:25:59;21.20;99.90
27759;DHT22;15148;48.972;12.794;2023-07-29T12:31:01;21.40;99.90
27759;DHT22;15148;48.972;12.794;2023-07-29T12:36:03;21.60;99.90
27759;DHT22;15148;48.972;12.794;2023-07-29T12:41:05;21.60;99.90
27759;DHT22;15148;48.972;12.794;2023-07-29T12:46:08;21.50;99.90
27759;DHT22;15148;48.972;12.794;2023-07-29T12:51:10;21.80;99.90
27759;DHT22;15148;48.972;12.794;2023-07-29T12:56:11;21.70;99.90
27759;DHT22;15148;48.972;12.794;2023-07-29T13:01:14;21.70;99.90
27759;DHT22;15148;48.972;12.794;2023-07-29T13:06:20;21.90;99.90
27759;DHT22;15148;48.972;12.794;2023-07-29T13:11:22;22.10;99.90
27759;DHT22;15148;48.972;12.794;2023-07-29T13:16:24;21.80;99.90
27759;DHT22;15148;48.972;12.794;2023-07-29T13:21:26;21.90;99.90
27759;DHT22;15148;48.972;12.794;2023-07-29T13:26:28;22.10;99.90
27759;DHT22;15148;48.972;12.794;2023-07-29T13:31:32;22.40;99.90
27759;DHT22;15148;48.972;12.794;2023-07-29T13:36:34;22.30;99.90
27759;DHT22;15148;48.972;12.794;2023-07-29T13:41:36;22.10;99.90
27759;DHT22;15148;48.972;12.794;2023-07-29T13:46:38;22.10;99.90
27759;DHT22;15148;48.972;12.794;2023-07-29T13:51:40;22.20;99.90
27759;DHT22;15148;48.972;12.794;2023-07-29T13:56:44;22.40;99.90
27759;DHT22;15148;48.972;12.794;2023-07-29T14:01:46;22.40;99.90
27759;DHT22;15148;48.972;12.794;2023-07-29T14:06:48;22.30;99.90
27759;DHT22;15148;48.972;12.794;2023-07-29T14:11:58;22.20;99.90
27759;DHT22;15148;48.972;12.794;2023-07-29T14:17:00;22.10;99.90
27759;DHT22;15148;48.972;12.794;2023-07-29T14:22:02;22.30;99.90
27759;DHT22;15148;48.972;12.794;2023-07-29T14:27:04;22.40;99.90
27759;DHT22;15148;48.972;12.794;2023-07-29T14:32:06;22.60;99.90
27759;DHT22;15148;48.972;12.794;2023-07-29T14:37:08;22.60;99.90
27759;DHT22;15148;48.972;12.794;2023-07-29T14:42:10;22.70;99.90
27759;DHT22;15148;48.972;12.794;2023-07-29T14:47:12;22.80;99.90
27759;DHT22;15148;48.972;12.794;2023-07-29T14:52:14;22.60;99.90
27759;DHT22;15148;48.972;12.794;2023-07-29T14:57:17;22.70;99.90
27759;DHT22;15148;48.972;12.794;2023-07-29T15:02:19;22.60;99.90
27759;DHT22;15148;48.972;12.794;2023-07-29T15:07:21;22.50;99.90
27759;DHT22;15148;48.972;12.794;2023-07-29T15:12:23;22.60;99.90
27759;DHT22;15148;48.972;12.794;2023-07-29T15:17:25;22.50;99.90
27759;DHT22;15148;48.972;12.794;2023-07-29T15:22:28;22.30;99.90
27759;DHT22;15148;48.972;12.794;2023-07-29T15:27:30;22.20;99.90
27759;DHT22;15148;48.972;12.794;2023-07-29T15:32:32;22.20;99.90
27759;DHT22;15148;48.972;12.794;2023-07-29T15:37:34;22.10;99.90
27759;DHT22;15148;48.972;12.794;2023-07-29T15:42:36;22.20;99.90
27759;DHT22;15148;48.972;12.794;2023-07-29T15:47:38;22.10;99.90
27759;DHT22;15148;48.972;12.794;2023-07-29T15:52:40;22.10;99.90
27759;DHT22;15148;48.972;12.794;2023-07-29T15:57:44;22.00;99.90
27759;DHT22;15148;48.972;12.794;2023-07-29T16:02:46;21.90;99.90
27759;DHT22;15148;48.972;12.794;2023-07-29T16:07:48;21.90;99.90
27759;DHT22;15148;48.972;12.794;2023-07-29T16:12:50;21.80;99.90
27759;DHT22;15148;48.972;12.794;2023-07-29T16:17:52;21.80;99.90
27759;DHT22;15148;48.972;12.794;2023-07-29T16:22:56;21.80;99.90
27759;DHT22;15148;48.972;12.794;2023-07-29T16:27:58;21.70;99.90
27759;DHT22;15148;48.972;12.794;2023-07-29T16:32:59;21.70;99.90
27759;DHT22;15148;48.972;12.794;2023-07-29T16:38:02;21.70;99.90
27759;DHT22;15148;48.972;12.794;2023-07-29T16:43:04;21.60;99.90
27759;DHT22;15148;48.972;12.794;2023-07-29T16:48:06;21.60;99.90
27759;DHT22;15148;48.972;12.794;2023-07-29T16:53:08;21.60;99.90
27759;DHT22;15148;48.972;12.794;2023-07-29T16:58:10;21.40;99.90
27759;DHT22;15148;48.972;12.794;2023-07-29T17:03:11;21.30;99.90
27759;DHT22;15148;48.972;12.794;2023-07-29T17:08:14;21.40;99.90
27759;DHT22;15148;48.972;12.794;2023-07-29T17:13:15;21.30;99.90
27759;DHT22;15148;48.972;12.794;2023-07-29T17:18:17;21.20;99.90
27759;DHT22;15148;48.972;12.794;2023-07-29T17:23:19;21.20;99.90
27759;DHT22;15148;48.972;12.794;2023-07-29T17:28:21;21.20;99.90
27759;DHT22;15148;48.972;12.794;2023-07-29T17:33:23;21.10;99.90
27759;DHT22;15148;48.972;12.794;2023-07-29T17:38:26;21.10;99.90
27759;DHT22;15148;48.972;12.794;2023-07-29T17:43:28;21.00;99.90
27759;DHT22;15148;48.972;12.794;2023-07-29T17:48:30;20.80;99.90
27759;DHT22;15148;48.972;12.794;2023-07-29T17:53:32;20.70;99.90
27759;DHT22;15148;48.972;12.794;2023-07-29T17:58:37;20.60;99.90
27759;DHT22;15148;48.972;12.794;2023-07-29T18:03:39;20.40;99.90
27759;DHT22;15148;48.972;12.794;2023-07-29T18:08:41;20.40;99.90
27759;DHT22;15148;48.972;12.794;2023-07-29T18:13:44;20.30;99.90
27759;DHT22;15148;48.972;12.794;2023-07-29T18:18:46;20.00;99.90
27759;DHT22;15148;48.972;12.794;2023-07-29T18:23:51;20.00;99.90
27759;DHT22;15148;48.972;12.794;2023-07-29T18:28:53;19.90;99.90
27759;DHT22;15148;48.972;12.794;2023-07-29T18:33:56;19.80;99.90
27759;DHT22;15148;48.972;12.794;2023-07-29T18:38:58;19.70;99.90
27759;DHT22;15148;48.972;12.794;2023-07-29T18:44:02;19.60;99.90
27759;DHT22;15148;48.972;12.794;2023-07-29T18:49:04;19.60;99.90
27759;DHT22;15148;48.972;12.794;2023-07-29T18:54:07;19.50;99.90
27759;DHT22;15148;48.972;12.794;2023-07-29T18:59:10;19.40;99.90
27759;DHT22;15148;48.972;12.794;2023-07-29T19:04:11;19.40;99.90
27759;DHT22;15148;48.972;12.794;2023-07-29T19:09:15;19.30;99.90
27759;DHT22;15148;48.972;12.794;2023-07-29T19:14:17;19.20;99.90
27759;DHT22;15148;48.972;12.794;2023-07-29T19:19:19;19.20;99.90
27759;DHT22;15148;48.972;12.794;2023-07-29T19:24:21;19.10;99.90
27759;DHT22;15148;48.972;12.794;2023-07-29T19:29:23;19.00;99.90
27759;DHT22;15148;48.972;12.794;2023-07-29T19:34:24;19.00;99.90
27759;DHT22;15148;48.972;12.794;2023-07-29T19:39:26;19.00;99.90
27759;DHT22;15148;48.972;12.794;2023-07-29T19:44:28;18.90;99.90
27759;DHT22;15148;48.972;12.794;2023-07-29T19:49:32;18.80;99.90
27759;DHT22;15148;48.972;12.794;2023-07-29T19:54:34;18.80;99.90
27759;DHT22;15148;48.972;12.794;2023-07-29T19:59:35;18.80;99.90
27759;DHT22;15148;48.972;12.794;2023-07-29T20:04:53;18.70;99.90
27759;DHT22;15148;48.972;12.794;2023-07-29T20:09:58;18.60;99.90
27759;DHT22;15148;48.972;12.794;2023-07-29T20:15:00;18.60;99.90
27759;DHT22;15148;48.972;12.794;2023-07-29T20:20:02;18.50;99.90
27759;DHT22;15148;48.972;12.794;2023-07-29T20:25:05;18.40;99.90
27759;DHT22;15148;48.972;12.794;2023-07-29T20:30:07;18.40;99.90
27759;DHT22;15148;48.972;12.794;2023-07-29T20:35:09;18.30;99.90
27759;DHT22;15148;48.972;12.794;2023-07-29T20:40:11;18.10;99.90
27759;DHT22;15148;48.972;12.794;2023-07-29T20:45:14;18.10;99.90
27759;DHT22;15148;48.972;12.794;2023-07-29T20:50:15;18.10;99.90
27759;DHT22;15148;48.972;12.794;2023-07-29T20:55:17;18.00;99.90
27759;DHT22;15148;48.972;12.794;2023-07-29T21:00:19;17.90;99.90
27759;DHT22;15148;48.972;12.794;2023-07-29T21:05:21;17.90;99.90
27759;DHT22;15148;48.972;12.794;2023-07-29T21:10:23;17.90;99.90
27759;DHT22;15148;48.972;12.794;2023-07-29T21:15:26;17.90;99.90
27759;DHT22;15148;48.972;12.794;2023-07-29T21:20:28;17.80;99.90
27759;DHT22;15148;48.972;12.794;2023-07-29T21:25:30;17.70;99.90
27759;DHT22;15148;48.972;12.794;2023-07-29T21:30:32;17.70;99.90
27759;DHT22;15148;48.972;12.794;2023-07-29T21:35:34;17.80;99.90
27759;DHT22;15148;48.972;12.794;2023-07-29T21:40:36;17.80;99.90
27759;DHT22;15148;48.972;12.794;2023-07-29T21:45:38;17.80;99.90
27759;DHT22;15148;48.972;12.794;2023-07-29T21:50:43;17.80;99.90
27759;DHT22;15148;48.972;12.794;2023-07-29T21:55:45;17.80;99.90
27759;DHT22;15148;48.972;12.794;2023-07-29T22:00:53;17.80;99.90
27759;DHT22;15148;48.972;12.794;2023-07-29T22:06:02;17.80;99.90
27759;DHT22;15148;48.972;12.794;2023-07-29T22:11:04;17.80;99.90
27759;DHT22;15148;48.972;12.794;2023-07-29T22:16:07;17.80;99.90
27759;DHT22;15148;48.972;12.794;2023-07-29T22:21:09;17.80;99.90
27759;DHT22;15148;48.972;12.794;2023-07-29T22:26:11;17.90;99.90
27759;DHT22;15148;48.972;12.794;2023-07-29T22:31:12;17.90;99.90
27759;DHT22;15148;48.972;12.794;2023-07-29T22:36:14;17.90;99.90
27759;DHT22;15148;48.972;12.794;2023-07-29T22:41:16;17.90;99.90
27759;DHT22;15148;48.972;12.794;2023-07-29T22:46:18;18.00;99.90
27759;DHT22;15148;48.972;12.794;2023-07-29T22:51:20;17.90;99.90
27759;DHT22;15148;48.972;12.794;2023-07-29T22:56:22;18.00;99.90
27759;DHT22;15148;48.972;12.794;2023-07-29T23:01:25;17.90;99.90
27759;DHT22;15148;48.972;12.794;2023-07-29T23:06:27;17.90;99.90
27759;DHT22;15148;48.972;12.794;2023-07-29T23:11:29;17.90;99.90
27759;DHT22;15148;48.972;12.794;2023-07-29T23:16:31;18.00;99.90
27759;DHT22;15148;48.972;12.794;2023-07-29T23:21:32;18.00;99.90
27759;DHT22;15148;48.972;12.794;2023-07-29T23:26:34;18.00;99.90
27759;DHT22;15148;48.972;12.794;2023-07-29T23:31:36;18.00;99.90
27759;DHT22;15148;48.972;12.794;2023-07-29T23:36:38;18.00;99.90
27759;DHT22;15148;48.972;12.794;2023-07-29T23:41:40;18.00;99.90
27759;DHT22;15148;48.972;12.794;2023-07-29T23:46:42;18.00;99.90
27759;DHT22;15148;48.972;12.794;2023-07-29T23:51:44;18.00;99.90
27759;DHT22;15148;48.972;12.794;2023-07-29T23:56:46;17.90;99.90
